KMQB

Details ICAO KMQB
Name MACOMB MUNI
Region United States
Timezone America/Chicago (UTC-6.0)
Plans Departing 5
Arriving 1
Stats Elevation 707 ft / 215 m (AMSL)
Location 40.520145° -90.652498°
Runways 2
Magnetic Variation 1.387° W
Sunrise 2017-12-12 13:18:21 UTC / 2017-12-12 07:18:21 Local
Sunset 2017-12-12 22:37:26 UTC / 2017-12-12 16:37:26 Local
Advertisement - Login to hide

Runways

ID Width Length Bearing (true) Bearing (mag) Surface Threshold Offset Overrun Length
09 100 ft / 30 m 5,089 ft / 1,551 m 90.10° 91.49° Asphalt 0 ft / 0 m 0 ft / 0 m
18 190 ft / 58 m 3,725 ft / 1,136 m 180.09° 181.48° Grass 0 ft / 0 m 752 ft / 229 m
27 100 ft / 30 m 5,089 ft / 1,551 m 270.11° 271.50° Asphalt 0 ft / 0 m 0 ft / 0 m
36 190 ft / 58 m 3,725 ft / 1,136 m 0.09° 1.48° Grass 0 ft / 0 m 315 ft / 96 m

Map

Weather


0- 5 10 15 20 25 30 35+ Temperature / ° C

Clouds and Precipitation
Forecast for 2017-12-13 00:00 UTC. Updated 20 minutes ago

Ground ~20,000 ft ~40,000 ft Winds

METAR

KMQB 122335Z AUTO 27004KT 10SM OVC100 M02/M15 A3011 RMK AO2 T10221153

TAF

Not found

Frequencies

Recorded 119.02 MHz AWOS 3
Unicom 122.80 MHz CTAF/UNICOM
Warning: Do not use this data for real-world aviation or navigation. No guarantee of current accuracy is given.